sensor_id;sensor_type;location;lat;lon;timestamp;P1;durP1;ratioP1;P2;durP2;ratioP2
16326;SDS011;34812;49.846;9.610;2023-03-13T00:00:31;17.00;;;7.33;;
16326;SDS011;34812;49.846;9.610;2023-03-13T00:01:33;16.00;;;7.03;;
16326;SDS011;34812;49.846;9.610;2023-03-13T00:02:35;17.23;;;7.10;;
16326;SDS011;34812;49.846;9.610;2023-03-13T00:03:37;12.63;;;5.30;;
16326;SDS011;34812;49.846;9.610;2023-03-13T00:04:39;16.50;;;6.00;;
16326;SDS011;34812;49.846;9.610;2023-03-13T00:05:41;14.63;;;5.63;;
16326;SDS011;34812;49.846;9.610;2023-03-13T00:06:42;17.97;;;5.37;;
16326;SDS011;34812;49.846;9.610;2023-03-13T00:07:43;18.93;;;8.00;;
16326;SDS011;34812;49.846;9.610;2023-03-13T00:08:44;14.97;;;6.70;;
16326;SDS011;34812;49.846;9.610;2023-03-13T00:09:46;17.27;;;6.10;;
16326;SDS011;34812;49.846;9.610;2023-03-13T00:10:47;18.27;;;6.20;;
16326;SDS011;34812;49.846;9.610;2023-03-13T00:11:48;16.07;;;5.60;;
16326;SDS011;34812;49.846;9.610;2023-03-13T00:12:49;15.07;;;5.90;;
16326;SDS011;34812;49.846;9.610;2023-03-13T00:13:52;12.80;;;5.43;;
16326;SDS011;34812;49.846;9.610;2023-03-13T00:14:53;12.93;;;4.80;;
16326;SDS011;34812;49.846;9.610;2023-03-13T00:15:58;14.13;;;5.43;;
16326;SDS011;34812;49.846;9.610;2023-03-13T00:17:00;17.80;;;5.10;;
16326;SDS011;34812;49.846;9.610;2023-03-13T00:18:02;15.97;;;5.13;;
16326;SDS011;34812;49.846;9.610;2023-03-13T00:19:03;17.23;;;6.03;;
16326;SDS011;34812;49.846;9.610;2023-03-13T00:20:08;15.00;;;5.30;;
16326;SDS011;34812;49.846;9.610;2023-03-13T00:21:09;15.67;;;4.77;;
16326;SDS011;34812;49.846;9.610;2023-03-13T00:22:11;14.67;;;5.53;;
16326;SDS011;34812;49.846;9.610;2023-03-13T00:23:12;14.57;;;5.27;;
16326;SDS011;34812;49.846;9.610;2023-03-13T00:24:14;18.20;;;4.87;;
16326;SDS011;34812;49.846;9.610;2023-03-13T00:25:15;15.30;;;4.67;;
16326;SDS011;34812;49.846;9.610;2023-03-13T00:26:18;15.23;;;4.77;;
16326;SDS011;34812;49.846;9.610;2023-03-13T00:27:21;15.77;;;5.33;;
16326;SDS011;34812;49.846;9.610;2023-03-13T00:28:22;15.07;;;5.20;;
16326;SDS011;34812;49.846;9.610;2023-03-13T00:29:23;17.23;;;4.97;;
16326;SDS011;34812;49.846;9.610;2023-03-13T00:30:26;14.40;;;4.97;;
16326;SDS011;34812;49.846;9.610;2023-03-13T00:31:27;16.20;;;5.37;;
16326;SDS011;34812;49.846;9.610;2023-03-13T00:32:30;12.93;;;4.90;;
16326;SDS011;34812;49.846;9.610;2023-03-13T00:33:31;13.10;;;4.67;;
16326;SDS011;34812;49.846;9.610;2023-03-13T00:34:33;11.53;;;4.50;;
16326;SDS011;34812;49.846;9.610;2023-03-13T00:35:36;14.07;;;4.70;;
16326;SDS011;34812;49.846;9.610;2023-03-13T00:36:37;12.53;;;3.87;;
16326;SDS011;34812;49.846;9.610;2023-03-13T00:37:38;14.40;;;4.93;;
16326;SDS011;34812;49.846;9.610;2023-03-13T00:38:40;12.43;;;4.30;;
16326;SDS011;34812;49.846;9.610;2023-03-13T00:39:41;12.83;;;4.63;;
16326;SDS011;34812;49.846;9.610;2023-03-13T00:40:44;19.23;;;4.03;;
16326;SDS011;34812;49.846;9.610;2023-03-13T00:41:44;15.70;;;5.00;;
16326;SDS011;34812;49.846;9.610;2023-03-13T00:42:47;15.17;;;4.77;;
16326;SDS011;34812;49.846;9.610;2023-03-13T00:43:47;14.77;;;4.60;;
16326;SDS011;34812;49.846;9.610;2023-03-13T00:44:50;13.43;;;4.47;;
16326;SDS011;34812;49.846;9.610;2023-03-13T00:45:50;15.37;;;4.90;;
16326;SDS011;34812;49.846;9.610;2023-03-13T00:46:53;13.03;;;4.70;;
16326;SDS011;34812;49.846;9.610;2023-03-13T00:47:54;12.50;;;4.37;;
16326;SDS011;34812;49.846;9.610;2023-03-13T00:48:55;11.43;;;4.83;;
16326;SDS011;34812;49.846;9.610;2023-03-13T00:49:57;12.33;;;4.50;;
16326;SDS011;34812;49.846;9.610;2023-03-13T00:51:00;11.13;;;4.60;;
16326;SDS011;34812;49.846;9.610;2023-03-13T00:52:01;14.27;;;4.23;;
16326;SDS011;34812;49.846;9.610;2023-03-13T00:53:03;13.57;;;5.43;;
16326;SDS011;34812;49.846;9.610;2023-03-13T00:54:04;20.17;;;4.60;;
16326;SDS011;34812;49.846;9.610;2023-03-13T00:55:06;12.33;;;4.43;;
16326;SDS011;34812;49.846;9.610;2023-03-13T00:56:09;13.13;;;4.23;;
16326;SDS011;34812;49.846;9.610;2023-03-13T00:57:12;13.53;;;4.67;;
16326;SDS011;34812;49.846;9.610;2023-03-13T00:58:12;14.80;;;3.97;;
16326;SDS011;34812;49.846;9.610;2023-03-13T00:59:14;11.40;;;4.00;;
16326;SDS011;34812;49.846;9.610;2023-03-13T01:00:16;13.70;;;3.63;;
16326;SDS011;34812;49.846;9.610;2023-03-13T01:01:18;16.07;;;4.13;;
16326;SDS011;34812;49.846;9.610;2023-03-13T01:02:22;12.47;;;4.13;;
16326;SDS011;34812;49.846;9.610;2023-03-13T01:03:23;13.17;;;4.50;;
16326;SDS011;34812;49.846;9.610;2023-03-13T01:04:25;12.40;;;4.17;;
16326;SDS011;34812;49.846;9.610;2023-03-13T01:05:27;12.77;;;4.17;;
16326;SDS011;34812;49.846;9.610;2023-03-13T01:06:30;17.00;;;4.13;;
16326;SDS011;34812;49.846;9.610;2023-03-13T01:07:34;14.37;;;4.50;;
16326;SDS011;34812;49.846;9.610;2023-03-13T01:08:35;17.00;;;4.27;;
16326;SDS011;34812;49.846;9.610;2023-03-13T01:09:37;15.57;;;4.30;;
16326;SDS011;34812;49.846;9.610;2023-03-13T01:10:39;11.03;;;4.23;;
16326;SDS011;34812;49.846;9.610;2023-03-13T01:11:40;17.33;;;4.70;;
16326;SDS011;34812;49.846;9.610;2023-03-13T01:12:42;16.60;;;4.90;;
16326;SDS011;34812;49.846;9.610;2023-03-13T01:13:43;9.43;;;3.70;;
16326;SDS011;34812;49.846;9.610;2023-03-13T01:14:48;11.47;;;4.30;;
16326;SDS011;34812;49.846;9.610;2023-03-13T01:15:49;11.03;;;4.20;;
16326;SDS011;34812;49.846;9.610;2023-03-13T01:16:51;14.60;;;4.03;;
16326;SDS011;34812;49.846;9.610;2023-03-13T01:17:53;11.90;;;4.00;;
16326;SDS011;34812;49.846;9.610;2023-03-13T01:18:54;13.30;;;4.47;;
16326;SDS011;34812;49.846;9.610;2023-03-13T01:19:59;11.47;;;4.63;;
16326;SDS011;34812;49.846;9.610;2023-03-13T01:21:00;10.83;;;4.47;;
16326;SDS011;34812;49.846;9.610;2023-03-13T01:22:03;13.27;;;4.13;;
16326;SDS011;34812;49.846;9.610;2023-03-13T01:23:04;15.30;;;4.33;;
16326;SDS011;34812;49.846;9.610;2023-03-13T01:24:06;12.30;;;4.23;;
16326;SDS011;34812;49.846;9.610;2023-03-13T01:25:07;17.17;;;5.33;;
16326;SDS011;34812;49.846;9.610;2023-03-13T01:26:09;11.23;;;4.57;;
16326;SDS011;34812;49.846;9.610;2023-03-13T01:27:11;15.07;;;4.60;;
16326;SDS011;34812;49.846;9.610;2023-03-13T01:28:13;10.97;;;4.27;;
16326;SDS011;34812;49.846;9.610;2023-03-13T01:29:14;16.27;;;5.00;;
16326;SDS011;34812;49.846;9.610;2023-03-13T01:30:16;11.37;;;5.00;;
16326;SDS011;34812;49.846;9.610;2023-03-13T01:31:17;13.30;;;4.20;;
16326;SDS011;34812;49.846;9.610;2023-03-13T01:32:20;12.70;;;5.10;;
16326;SDS011;34812;49.846;9.610;2023-03-13T01:33:22;13.20;;;4.63;;
16326;SDS011;34812;49.846;9.610;2023-03-13T01:34:24;10.20;;;4.00;;
16326;SDS011;34812;49.846;9.610;2023-03-13T01:35:25;14.47;;;4.47;;
16326;SDS011;34812;49.846;9.610;2023-03-13T01:36:27;14.20;;;4.37;;
16326;SDS011;34812;49.846;9.610;2023-03-13T01:37:30;13.10;;;4.30;;
16326;SDS011;34812;49.846;9.610;2023-03-13T01:38:31;13.13;;;4.47;;
16326;SDS011;34812;49.846;9.610;2023-03-13T01:39:32;12.83;;;4.17;;
16326;SDS011;34812;49.846;9.610;2023-03-13T01:40:38;11.97;;;4.30;;
16326;SDS011;34812;49.846;9.610;2023-03-13T01:41:40;13.13;;;4.30;;
16326;SDS011;34812;49.846;9.610;2023-03-13T01:42:48;12.93;;;4.20;;
16326;SDS011;34812;49.846;9.610;2023-03-13T01:43:50;12.77;;;4.63;;
16326;SDS011;34812;49.846;9.610;2023-03-13T01:44:53;11.10;;;4.30;;
16326;SDS011;34812;49.846;9.610;2023-03-13T01:45:57;12.00;;;3.87;;
16326;SDS011;34812;49.846;9.610;2023-03-13T01:47:11;13.83;;;4.83;;
16326;SDS011;34812;49.846;9.610;2023-03-13T01:48:42;11.40;;;3.63;;
16326;SDS011;34812;49.846;9.610;2023-03-13T01:49:49;14.27;;;4.27;;
16326;SDS011;34812;49.846;9.610;2023-03-13T01:51:22;11.17;;;3.90;;
16326;SDS011;34812;49.846;9.610;2023-03-13T01:52:26;13.70;;;4.30;;
16326;SDS011;34812;49.846;9.610;2023-03-13T01:53:40;10.73;;;3.50;;
16326;SDS011;34812;49.846;9.610;2023-03-13T01:54:44;14.83;;;4.47;;
16326;SDS011;34812;49.846;9.610;2023-03-13T01:55:50;12.87;;;3.63;;
16326;SDS011;34812;49.846;9.610;2023-03-13T01:56:53;12.37;;;4.53;;
16326;SDS011;34812;49.846;9.610;2023-03-13T01:57:59;9.67;;;3.67;;
16326;SDS011;34812;49.846;9.610;2023-03-13T01:59:00;16.60;;;5.13;;
16326;SDS011;34812;49.846;9.610;2023-03-13T02:00:05;9.73;;;3.53;;
16326;SDS011;34812;49.846;9.610;2023-03-13T02:01:14;11.40;;;4.10;;
16326;SDS011;34812;49.846;9.610;2023-03-13T02:02:17;9.47;;;3.60;;
16326;SDS011;34812;49.846;9.610;2023-03-13T02:03:19;9.30;;;3.83;;
16326;SDS011;34812;49.846;9.610;2023-03-13T02:04:21;12.07;;;3.40;;
16326;SDS011;34812;49.846;9.610;2023-03-13T02:05:26;11.67;;;4.00;;
16326;SDS011;34812;49.846;9.610;2023-03-13T02:06:29;10.17;;;4.40;;
16326;SDS011;34812;49.846;9.610;2023-03-13T02:07:33;11.57;;;4.20;;
16326;SDS011;34812;49.846;9.610;2023-03-13T02:08:39;10.57;;;3.60;;
16326;SDS011;34812;49.846;9.610;2023-03-13T02:09:46;13.00;;;3.87;;
16326;SDS011;34812;49.846;9.610;2023-03-13T02:10:52;9.93;;;2.87;;
16326;SDS011;34812;49.846;9.610;2023-03-13T02:11:58;8.20;;;3.27;;
16326;SDS011;34812;49.846;9.610;2023-03-13T02:13:03;11.37;;;3.97;;
16326;SDS011;34812;49.846;9.610;2023-03-13T02:14:04;10.20;;;3.73;;
16326;SDS011;34812;49.846;9.610;2023-03-13T02:15:07;12.87;;;4.00;;
16326;SDS011;34812;49.846;9.610;2023-03-13T02:16:10;10.93;;;3.93;;
16326;SDS011;34812;49.846;9.610;2023-03-13T02:17:12;9.57;;;3.30;;
16326;SDS011;34812;49.846;9.610;2023-03-13T02:18:13;10.53;;;3.13;;
16326;SDS011;34812;49.846;9.610;2023-03-13T02:19:17;10.10;;;4.10;;
16326;SDS011;34812;49.846;9.610;2023-03-13T02:20:20;12.20;;;3.87;;
16326;SDS011;34812;49.846;9.610;2023-03-13T02:21:25;10.93;;;3.40;;
16326;SDS011;34812;49.846;9.610;2023-03-13T02:22:38;12.57;;;3.73;;
16326;SDS011;34812;49.846;9.610;2023-03-13T02:23:49;8.87;;;3.70;;
16326;SDS011;34812;49.846;9.610;2023-03-13T02:25:02;8.63;;;3.10;;
16326;SDS011;34812;49.846;9.610;2023-03-13T02:26:11;9.07;;;3.30;;
16326;SDS011;34812;49.846;9.610;2023-03-13T02:27:13;10.63;;;3.20;;
16326;SDS011;34812;49.846;9.610;2023-03-13T02:28:16;10.23;;;3.03;;
16326;SDS011;34812;49.846;9.610;2023-03-13T02:29:20;8.73;;;3.40;;
16326;SDS011;34812;49.846;9.610;2023-03-13T02:30:22;10.27;;;3.20;;
16326;SDS011;34812;49.846;9.610;2023-03-13T02:31:24;12.60;;;3.23;;
16326;SDS011;34812;49.846;9.610;2023-03-13T02:32:26;12.00;;;3.70;;
16326;SDS011;34812;49.846;9.610;2023-03-13T02:33:30;9.30;;;3.00;;
16326;SDS011;34812;49.846;9.610;2023-03-13T02:34:35;11.20;;;4.33;;
16326;SDS011;34812;49.846;9.610;2023-03-13T02:35:40;9.60;;;3.87;;
16326;SDS011;34812;49.846;9.610;2023-03-13T02:36:45;10.47;;;3.73;;
16326;SDS011;34812;49.846;9.610;2023-03-13T02:37:48;18.00;;;4.20;;
16326;SDS011;34812;49.846;9.610;2023-03-13T02:38:55;8.53;;;3.10;;
16326;SDS011;34812;49.846;9.610;2023-03-13T02:40:01;10.90;;;3.63;;
16326;SDS011;34812;49.846;9.610;2023-03-13T02:41:08;10.93;;;3.17;;
16326;SDS011;34812;49.846;9.610;2023-03-13T02:42:13;13.00;;;3.80;;
16326;SDS011;34812;49.846;9.610;2023-03-13T02:43:19;10.70;;;3.03;;
16326;SDS011;34812;49.846;9.610;2023-03-13T02:44:24;9.87;;;2.70;;
16326;SDS011;34812;49.846;9.610;2023-03-13T02:45:25;7.83;;;3.23;;
16326;SDS011;34812;49.846;9.610;2023-03-13T02:46:27;8.33;;;3.10;;
16326;SDS011;34812;49.846;9.610;2023-03-13T02:47:27;7.67;;;3.00;;
16326;SDS011;34812;49.846;9.610;2023-03-13T02:48:31;8.17;;;3.40;;
16326;SDS011;34812;49.846;9.610;2023-03-13T02:49:33;10.23;;;3.70;;
16326;SDS011;34812;49.846;9.610;2023-03-13T02:50:35;11.10;;;3.50;;
16326;SDS011;34812;49.846;9.610;2023-03-13T02:51:38;9.67;;;2.90;;
16326;SDS011;34812;49.846;9.610;2023-03-13T02:52:45;10.20;;;4.30;;
16326;SDS011;34812;49.846;9.610;2023-03-13T02:53:49;11.40;;;3.83;;
16326;SDS011;34812;49.846;9.610;2023-03-13T02:54:54;9.00;;;4.07;;
16326;SDS011;34812;49.846;9.610;2023-03-13T02:55:58;11.70;;;3.83;;
16326;SDS011;34812;49.846;9.610;2023-03-13T02:57:03;7.93;;;3.17;;
16326;SDS011;34812;49.846;9.610;2023-03-13T02:58:05;11.33;;;3.37;;
16326;SDS011;34812;49.846;9.610;2023-03-13T02:59:09;13.50;;;3.70;;
16326;SDS011;34812;49.846;9.610;2023-03-13T03:00:14;10.13;;;3.23;;
16326;SDS011;34812;49.846;9.610;2023-03-13T03:01:17;10.70;;;3.87;;
16326;SDS011;34812;49.846;9.610;2023-03-13T03:02:19;8.73;;;3.17;;
16326;SDS011;34812;49.846;9.610;2023-03-13T03:03:21;9.43;;;3.47;;
16326;SDS011;34812;49.846;9.610;2023-03-13T03:04:23;7.57;;;3.13;;
16326;SDS011;34812;49.846;9.610;2023-03-13T03:05:29;8.93;;;2.90;;
16326;SDS011;34812;49.846;9.610;2023-03-13T03:06:31;9.87;;;3.40;;
16326;SDS011;34812;49.846;9.610;2023-03-13T03:07:35;8.80;;;3.17;;
16326;SDS011;34812;49.846;9.610;2023-03-13T03:08:36;9.60;;;3.40;;
16326;SDS011;34812;49.846;9.610;2023-03-13T03:09:40;10.07;;;3.30;;
16326;SDS011;34812;49.846;9.610;2023-03-13T03:10:46;8.60;;;3.13;;
16326;SDS011;34812;49.846;9.610;2023-03-13T03:11:47;8.60;;;3.10;;
16326;SDS011;34812;49.846;9.610;2023-03-13T03:12:51;8.17;;;2.97;;
16326;SDS011;34812;49.846;9.610;2023-03-13T03:13:52;10.20;;;3.60;;
16326;SDS011;34812;49.846;9.610;2023-03-13T03:14:55;11.77;;;3.63;;
16326;SDS011;34812;49.846;9.610;2023-03-13T03:15:57;10.97;;;3.60;;
16326;SDS011;34812;49.846;9.610;2023-03-13T03:16:59;11.03;;;3.43;;
16326;SDS011;34812;49.846;9.610;2023-03-13T03:18:00;7.13;;;3.03;;
16326;SDS011;34812;49.846;9.610;2023-03-13T03:19:02;9.07;;;3.20;;
16326;SDS011;34812;49.846;9.610;2023-03-13T03:20:04;13.00;;;3.37;;
16326;SDS011;34812;49.846;9.610;2023-03-13T03:21:12;11.37;;;3.57;;
16326;SDS011;34812;49.846;9.610;2023-03-13T03:22:13;8.33;;;3.20;;
16326;SDS011;34812;49.846;9.610;2023-03-13T03:23:15;9.40;;;3.40;;
16326;SDS011;34812;49.846;9.610;2023-03-13T03:24:16;12.27;;;3.43;;
16326;SDS011;34812;49.846;9.610;2023-03-13T03:25:17;9.30;;;2.90;;
16326;SDS011;34812;49.846;9.610;2023-03-13T03:26:20;11.73;;;3.10;;
16326;SDS011;34812;49.846;9.610;2023-03-13T03:27:23;10.70;;;2.97;;
16326;SDS011;34812;49.846;9.610;2023-03-13T03:28:28;8.23;;;3.20;;
16326;SDS011;34812;49.846;9.610;2023-03-13T03:29:31;13.23;;;4.00;;
16326;SDS011;34812;49.846;9.610;2023-03-13T03:30:32;8.80;;;3.33;;
16326;SDS011;34812;49.846;9.610;2023-03-13T03:31:35;12.47;;;3.30;;
16326;SDS011;34812;49.846;9.610;2023-03-13T03:32:36;10.50;;;3.23;;
16326;SDS011;34812;49.846;9.610;2023-03-13T03:33:38;11.73;;;3.43;;
16326;SDS011;34812;49.846;9.610;2023-03-13T03:34:43;9.50;;;3.40;;
16326;SDS011;34812;49.846;9.610;2023-03-13T03:35:44;8.43;;;3.23;;
16326;SDS011;34812;49.846;9.610;2023-03-13T03:36:46;9.03;;;3.10;;
16326;SDS011;34812;49.846;9.610;2023-03-13T03:37:48;13.40;;;3.73;;
16326;SDS011;34812;49.846;9.610;2023-03-13T03:38:49;10.53;;;3.63;;
16326;SDS011;34812;49.846;9.610;2023-03-13T03:39:54;10.60;;;3.33;;
16326;SDS011;34812;49.846;9.610;2023-03-13T03:40:54;14.67;;;3.70;;
16326;SDS011;34812;49.846;9.610;2023-03-13T03:41:56;14.23;;;3.87;;
16326;SDS011;34812;49.846;9.610;2023-03-13T03:42:58;12.07;;;3.43;;
16326;SDS011;34812;49.846;9.610;2023-03-13T03:44:01;11.80;;;3.77;;
16326;SDS011;34812;49.846;9.610;2023-03-13T03:45:12;8.00;;;3.20;;
16326;SDS011;34812;49.846;9.610;2023-03-13T03:46:14;8.83;;;3.30;;
16326;SDS011;34812;49.846;9.610;2023-03-13T03:47:15;12.07;;;4.17;;
16326;SDS011;34812;49.846;9.610;2023-03-13T03:48:19;9.63;;;3.40;;
16326;SDS011;34812;49.846;9.610;2023-03-13T03:49:20;12.10;;;3.60;;
16326;SDS011;34812;49.846;9.610;2023-03-13T03:50:22;12.43;;;3.47;;
16326;SDS011;34812;49.846;9.610;2023-03-13T03:51:30;11.17;;;3.00;;
16326;SDS011;34812;49.846;9.610;2023-03-13T03:52:31;11.53;;;3.50;;
16326;SDS011;34812;49.846;9.610;2023-03-13T03:53:32;12.87;;;4.00;;
16326;SDS011;34812;49.846;9.610;2023-03-13T03:54:34;10.03;;;3.13;;
16326;SDS011;34812;49.846;9.610;2023-03-13T03:55:35;11.77;;;3.50;;
16326;SDS011;34812;49.846;9.610;2023-03-13T03:56:37;12.63;;;3.70;;
16326;SDS011;34812;49.846;9.610;2023-03-13T03:57:38;16.63;;;5.03;;
16326;SDS011;34812;49.846;9.610;2023-03-13T03:58:44;11.53;;;3.80;;
16326;SDS011;34812;49.846;9.610;2023-03-13T03:59:54;11.55;;;3.72;;
16326;SDS011;34812;49.846;9.610;2023-03-13T04:00:56;9.33;;;4.00;;
16326;SDS011;34812;49.846;9.610;2023-03-13T04:01:57;11.67;;;3.70;;
16326;SDS011;34812;49.846;9.610;2023-03-13T04:03:01;9.33;;;3.63;;
16326;SDS011;34812;49.846;9.610;2023-03-13T04:04:01;14.67;;;4.47;;
16326;SDS011;34812;49.846;9.610;2023-03-13T04:05:03;10.50;;;3.70;;
16326;SDS011;34812;49.846;9.610;2023-03-13T04:06:07;9.43;;;3.70;;
16326;SDS011;34812;49.846;9.610;2023-03-13T04:07:10;12.17;;;4.13;;
16326;SDS011;34812;49.846;9.610;2023-03-13T04:08:12;10.70;;;2.90;;
16326;SDS011;34812;49.846;9.610;2023-03-13T04:09:14;10.57;;;3.80;;
16326;SDS011;34812;49.846;9.610;2023-03-13T04:10:15;11.93;;;4.30;;
16326;SDS011;34812;49.846;9.610;2023-03-13T04:11:18;12.73;;;3.67;;
16326;SDS011;34812;49.846;9.610;2023-03-13T04:12:23;9.93;;;3.70;;
16326;SDS011;34812;49.846;9.610;2023-03-13T04:13:27;10.83;;;3.90;;
16326;SDS011;34812;49.846;9.610;2023-03-13T04:14:30;11.50;;;4.00;;
16326;SDS011;34812;49.846;9.610;2023-03-13T04:15:36;10.00;;;3.40;;
16326;SDS011;34812;49.846;9.610;2023-03-13T04:16:37;13.30;;;3.90;;
16326;SDS011;34812;49.846;9.610;2023-03-13T04:17:39;9.70;;;3.60;;
16326;SDS011;34812;49.846;9.610;2023-03-13T04:18:41;14.40;;;4.37;;
16326;SDS011;34812;49.846;9.610;2023-03-13T04:19:43;8.07;;;3.23;;
16326;SDS011;34812;49.846;9.610;2023-03-13T04:20:44;13.93;;;3.83;;
16326;SDS011;34812;49.846;9.610;2023-03-13T04:21:46;11.33;;;4.20;;
16326;SDS011;34812;49.846;9.610;2023-03-13T04:22:50;12.57;;;3.83;;
16326;SDS011;34812;49.846;9.610;2023-03-13T04:23:52;13.57;;;5.63;;
16326;SDS011;34812;49.846;9.610;2023-03-13T04:24:54;19.77;;;9.80;;
16326;SDS011;34812;49.846;9.610;2023-03-13T04:25:56;15.33;;;9.10;;
16326;SDS011;34812;49.846;9.610;2023-03-13T04:26:57;14.17;;;8.67;;
16326;SDS011;34812;49.846;9.610;2023-03-13T04:28:00;20.60;;;8.23;;
16326;SDS011;34812;49.846;9.610;2023-03-13T04:29:08;11.40;;;5.83;;
16326;SDS011;34812;49.846;9.610;2023-03-13T04:30:23;17.03;;;9.40;;
16326;SDS011;34812;49.846;9.610;2023-03-13T04:31:37;15.53;;;5.90;;
16326;SDS011;34812;49.846;9.610;2023-03-13T04:33:00;15.20;;;5.53;;
16326;SDS011;34812;49.846;9.610;2023-03-13T04:34:14;15.03;;;5.67;;
16326;SDS011;34812;49.846;9.610;2023-03-13T04:35:35;17.60;;;8.70;;
16326;SDS011;34812;49.846;9.610;2023-03-13T04:37:09;13.90;;;4.97;;
16326;SDS011;34812;49.846;9.610;2023-03-13T04:38:22;10.47;;;3.87;;
16326;SDS011;34812;49.846;9.610;2023-03-13T04:39:48;14.57;;;6.97;;
16326;SDS011;34812;49.846;9.610;2023-03-13T04:41:09;12.07;;;3.43;;
16326;SDS011;34812;49.846;9.610;2023-03-13T04:42:17;11.97;;;4.90;;
16326;SDS011;34812;49.846;9.610;2023-03-13T04:43:45;9.70;;;3.93;;
16326;SDS011;34812;49.846;9.610;2023-03-13T04:45:08;10.60;;;5.60;;
16326;SDS011;34812;49.846;9.610;2023-03-13T04:46:30;9.67;;;4.17;;
16326;SDS011;34812;49.846;9.610;2023-03-13T04:48:03;11.00;;;3.77;;
16326;SDS011;34812;49.846;9.610;2023-03-13T04:49:14;6.13;;;4.17;;
16326;SDS011;34812;49.846;9.610;2023-03-13T04:50:46;10.13;;;3.70;;
16326;SDS011;34812;49.846;9.610;2023-03-13T04:51:58;11.37;;;3.37;;
16326;SDS011;34812;49.846;9.610;2023-03-13T04:53:25;13.03;;;3.37;;
16326;SDS011;34812;49.846;9.610;2023-03-13T04:54:39;8.83;;;4.23;;
16326;SDS011;34812;49.846;9.610;2023-03-13T04:55:54;11.23;;;3.33;;
16326;SDS011;34812;49.846;9.610;2023-03-13T04:57:27;10.00;;;3.73;;
16326;SDS011;34812;49.846;9.610;2023-03-13T04:58:46;9.80;;;3.30;;
16326;SDS011;34812;49.846;9.610;2023-03-13T05:00:08;8.47;;;3.33;;
16326;SDS011;34812;49.846;9.610;2023-03-13T05:01:29;9.80;;;3.53;;
16326;SDS011;34812;49.846;9.610;2023-03-13T05:02:50;11.33;;;3.67;;
16326;SDS011;34812;49.846;9.610;2023-03-13T05:04:08;10.80;;;3.83;;
16326;SDS011;34812;49.846;9.610;2023-03-13T05:05:30;10.17;;;3.33;;
16326;SDS011;34812;49.846;9.610;2023-03-13T05:06:53;10.37;;;2.83;;
16326;SDS011;34812;49.846;9.610;2023-03-13T05:08:18;13.43;;;3.50;;
16326;SDS011;34812;49.846;9.610;2023-03-13T05:09:51;11.63;;;3.93;;
16326;SDS011;34812;49.846;9.610;2023-03-13T05:11:13;9.67;;;3.43;;
16326;SDS011;34812;49.846;9.610;2023-03-13T05:12:20;11.13;;;3.87;;
16326;SDS011;34812;49.846;9.610;2023-03-13T05:13:21;13.47;;;3.33;;
16326;SDS011;34812;49.846;9.610;2023-03-13T05:14:31;8.70;;;3.27;;
16326;SDS011;34812;49.846;9.610;2023-03-13T05:16:10;10.03;;;3.50;;
16326;SDS011;34812;49.846;9.610;2023-03-13T05:17:42;14.40;;;4.00;;
16326;SDS011;34812;49.846;9.610;2023-03-13T05:18:58;8.57;;;3.43;;
16326;SDS011;34812;49.846;9.610;2023-03-13T05:20:34;11.23;;;3.47;;
16326;SDS011;34812;49.846;9.610;2023-03-13T05:21:54;7.27;;;3.07;;
16326;SDS011;34812;49.846;9.610;2023-03-13T05:23:29;9.87;;;3.30;;
16326;SDS011;34812;49.846;9.610;2023-03-13T05:25:00;9.47;;;3.20;;
16326;SDS011;34812;49.846;9.610;2023-03-13T05:26:24;11.70;;;3.70;;
16326;SDS011;34812;49.846;9.610;2023-03-13T05:27:46;10.20;;;3.03;;
16326;SDS011;34812;49.846;9.610;2023-03-13T05:29:22;6.70;;;3.07;;
16326;SDS011;34812;49.846;9.610;2023-03-13T05:30:42;6.63;;;3.03;;
16326;SDS011;34812;49.846;9.610;2023-03-13T05:31:58;10.70;;;2.90;;
16326;SDS011;34812;49.846;9.610;2023-03-13T05:33:11;8.67;;;2.83;;
16326;SDS011;34812;49.846;9.610;2023-03-13T05:34:28;8.47;;;3.07;;
16326;SDS011;34812;49.846;9.610;2023-03-13T05:35:50;12.07;;;3.40;;
16326;SDS011;34812;49.846;9.610;2023-03-13T05:37:12;6.37;;;2.73;;
16326;SDS011;34812;49.846;9.610;2023-03-13T05:38:17;8.43;;;3.03;;
16326;SDS011;34812;49.846;9.610;2023-03-13T05:39:37;8.57;;;3.50;;
16326;SDS011;34812;49.846;9.610;2023-03-13T05:40:56;11.23;;;2.87;;
16326;SDS011;34812;49.846;9.610;2023-03-13T05:42:16;7.00;;;2.77;;
16326;SDS011;34812;49.846;9.610;2023-03-13T05:43:41;8.63;;;3.13;;
16326;SDS011;34812;49.846;9.610;2023-03-13T05:45:05;8.37;;;2.60;;
16326;SDS011;34812;49.846;9.610;2023-03-13T05:46:37;8.27;;;3.00;;
16326;SDS011;34812;49.846;9.610;2023-03-13T05:48:05;6.67;;;2.80;;
16326;SDS011;34812;49.846;9.610;2023-03-13T05:49:17;7.63;;;2.97;;
16326;SDS011;34812;49.846;9.610;2023-03-13T05:50:33;9.67;;;2.87;;
16326;SDS011;34812;49.846;9.610;2023-03-13T05:51:53;5.53;;;2.77;;
16326;SDS011;34812;49.846;9.610;2023-03-13T05:53:15;5.67;;;2.30;;
16326;SDS011;34812;49.846;9.610;2023-03-13T05:54:34;9.83;;;2.90;;
16326;SDS011;34812;49.846;9.610;2023-03-13T05:56:05;7.00;;;2.90;;
16326;SDS011;34812;49.846;9.610;2023-03-13T05:57:25;9.70;;;3.03;;
16326;SDS011;34812;49.846;9.610;2023-03-13T05:58:50;8.10;;;3.00;;
16326;SDS011;34812;49.846;9.610;2023-03-13T06:00:12;6.23;;;2.87;;
16326;SDS011;34812;49.846;9.610;2023-03-13T06:01:54;6.90;;;4.00;;
16326;SDS011;34812;49.846;9.610;2023-03-13T06:03:09;7.83;;;3.07;;
16326;SDS011;34812;49.846;9.610;2023-03-13T06:04:14;8.03;;;3.40;;
16326;SDS011;34812;49.846;9.610;2023-03-13T06:05:16;9.17;;;3.03;;
16326;SDS011;34812;49.846;9.610;2023-03-13T06:06:18;6.83;;;2.60;;
16326;SDS011;34812;49.846;9.610;2023-03-13T06:07:25;5.67;;;2.53;;
16326;SDS011;34812;49.846;9.610;2023-03-13T06:08:26;5.43;;;2.40;;
16326;SDS011;34812;49.846;9.610;2023-03-13T06:09:28;7.80;;;2.73;;
16326;SDS011;34812;49.846;9.610;2023-03-13T06:10:30;6.67;;;2.83;;
16326;SDS011;34812;49.846;9.610;2023-03-13T06:11:33;4.87;;;2.50;;
16326;SDS011;34812;49.846;9.610;2023-03-13T06:12:34;4.80;;;2.40;;
16326;SDS011;34812;49.846;9.610;2023-03-13T06:13:36;5.53;;;2.50;;
16326;SDS011;34812;49.846;9.610;2023-03-13T06:14:45;4.43;;;2.23;;
16326;SDS011;34812;49.846;9.610;2023-03-13T06:15:50;4.63;;;2.83;;
16326;SDS011;34812;49.846;9.610;2023-03-13T06:17:08;3.80;;;1.90;;
16326;SDS011;34812;49.846;9.610;2023-03-13T06:18:10;4.13;;;2.27;;
16326;SDS011;34812;49.846;9.610;2023-03-13T06:19:11;9.37;;;2.70;;
16326;SDS011;34812;49.846;9.610;2023-03-13T06:20:13;4.03;;;2.30;;
16326;SDS011;34812;49.846;9.610;2023-03-13T06:21:14;4.13;;;2.83;;
16326;SDS011;34812;49.846;9.610;2023-03-13T06:22:16;6.67;;;2.40;;
16326;SDS011;34812;49.846;9.610;2023-03-13T06:23:18;6.27;;;2.50;;
16326;SDS011;34812;49.846;9.610;2023-03-13T06:24:20;6.07;;;2.80;;
16326;SDS011;34812;49.846;9.610;2023-03-13T06:25:21;5.93;;;3.07;;
16326;SDS011;34812;49.846;9.610;2023-03-13T06:26:24;5.10;;;2.40;;
16326;SDS011;34812;49.846;9.610;2023-03-13T06:27:25;7.43;;;3.80;;
16326;SDS011;34812;49.846;9.610;2023-03-13T06:28:27;6.77;;;3.00;;
16326;SDS011;34812;49.846;9.610;2023-03-13T06:29:28;6.07;;;2.27;;
16326;SDS011;34812;49.846;9.610;2023-03-13T06:30:30;7.33;;;2.80;;
16326;SDS011;34812;49.846;9.610;2023-03-13T06:31:30;6.93;;;4.10;;
16326;SDS011;34812;49.846;9.610;2023-03-13T06:32:33;4.93;;;2.77;;
16326;SDS011;34812;49.846;9.610;2023-03-13T06:33:33;7.90;;;2.80;;
16326;SDS011;34812;49.846;9.610;2023-03-13T06:34:36;8.13;;;3.27;;
16326;SDS011;34812;49.846;9.610;2023-03-13T06:35:38;5.63;;;2.20;;
16326;SDS011;34812;49.846;9.610;2023-03-13T06:36:40;6.37;;;3.60;;
16326;SDS011;34812;49.846;9.610;2023-03-13T06:37:41;5.33;;;2.33;;